Time;durP1;ratioP1;P1;durP2;ratioP2;P2;SDS_P1;SDS_P2;PMS_P1;PMS_P2;Temp;Humidity;BMP_temperature;BMP_pressure;BME280_temperature;BME280_humidity;BME280_pressure;Samples;Min_cycle;Max_cycle;Signal;HPM_P1;HPM_P2
2022/03/15 00:00:26;;;;;;;3.35;2.80;;;21.20;40.40;;;;;;4971553;28;20067;-58
2022/03/15 00:02:52;;;;;;;3.60;2.95;;;21.20;40.40;;;;;;4957225;28;20838;-58
2022/03/15 00:05:18;;;;;;;4.60;2.72;;;21.20;40.40;;;;;;4958376;28;20054;-58
2022/03/15 00:07:44;;;;;;;5.43;3.10;;;21.20;40.40;;;;;;4956856;28;20089;-59
2022/03/15 00:10:15;;;;;;;3.70;2.83;;;21.10;40.40;;;;;;4959466;28;20235;-58
2022/03/15 00:12:45;;;;;;;3.35;2.47;;;21.10;40.30;;;;;;4957406;28;20055;-59
2022/03/15 00:15:12;;;;;;;3.72;2.65;;;21.10;40.40;;;;;;4957044;28;20050;-58
2022/03/15 00:17:38;;;;;;;3.30;2.65;;;21.10;40.40;;;;;;4958141;28;20093;-59
2022/03/15 00:20:10;;;;;;;4.78;2.90;;;21.10;40.40;;;;;;4957888;28;20055;-58
2022/03/15 00:22:37;;;;;;;3.70;2.90;;;21.10;40.30;;;;;;4950325;28;20683;-58
2022/03/15 00:25:04;;;;;;;4.28;2.88;;;21.10;40.40;;;;;;4956517;28;20050;-58
2022/03/15 00:27:30;;;;;;;4.68;2.80;;;21.10;40.40;;;;;;4959141;28;20082;-59
2022/03/15 00:29:56;;;;;;;3.45;2.60;;;21.10;40.30;;;;;;4956315;28;20214;-58
2022/03/15 00:32:23;;;;;;;3.83;2.63;;;21.00;40.30;;;;;;4957451;28;20866;-59
2022/03/15 00:34:49;;;;;;;3.05;2.40;;;21.00;40.20;;;;;;4956986;28;20125;-58
2022/03/15 00:37:15;;;;;;;2.72;2.25;;;21.00;40.20;;;;;;4958111;28;20137;-58
2022/03/15 00:39:41;;;;;;;3.38;2.30;;;21.00;40.10;;;;;;4951787;28;20061;-59
2022/03/15 00:42:07;;;;;;;2.72;2.15;;;21.00;40.10;;;;;;4955881;28;20046;-59
2022/03/15 00:44:33;;;;;;;2.45;2.20;;;21.00;40.10;;;;;;4955441;28;20061;-59
2022/03/15 00:46:59;;;;;;;4.03;2.75;;;21.00;40.10;;;;;;4953049;28;20545;-59
2022/03/15 00:49:25;;;;;;;3.50;2.60;;;20.90;40.00;;;;;;4955550;28;20056;-59
2022/03/15 00:51:51;;;;;;;4.88;2.10;;;20.90;40.00;;;;;;4956813;28;20054;-59
2022/03/15 00:54:16;;;;;;;4.13;2.40;;;20.90;40.00;;;;;;4949363;28;20070;-59
2022/03/15 00:56:42;;;;;;;4.30;2.65;;;20.90;40.00;;;;;;4957404;28;20688;-59
2022/03/15 00:59:09;;;;;;;5.60;2.28;;;20.90;40.00;;;;;;4957583;28;20479;-59
2022/03/15 01:01:36;;;;;;;3.70;2.85;;;20.90;40.00;;;;;;4955533;28;20170;-60
2022/03/15 01:04:02;;;;;;;3.58;2.70;;;20.90;39.90;;;;;;4956484;28;20085;-59
2022/03/15 01:06:28;;;;;;;3.13;2.60;;;20.90;39.90;;;;;;4954428;28;20071;-59
2022/03/15 01:08:54;;;;;;;4.22;2.53;;;20.80;39.80;;;;;;4949497;28;20476;-59
2022/03/15 01:11:20;;;;;;;2.45;2.13;;;20.80;39.80;;;;;;4956049;28;20043;-58
2022/03/15 01:13:45;;;;;;;4.50;2.20;;;20.90;39.80;;;;;;4954779;28;20062;-58
2022/03/15 01:16:11;;;;;;;3.50;2.42;;;20.80;39.80;;;;;;4956171;28;20089;-59
2022/03/15 01:18:37;;;;;;;4.10;2.70;;;20.80;39.80;;;;;;4956179;28;20051;-59
2022/03/15 01:21:02;;;;;;;3.90;2.30;;;20.80;39.80;;;;;;4954360;28;20554;-59
2022/03/15 01:23:28;;;;;;;3.97;2.63;;;20.80;39.80;;;;;;4947710;28;20540;-58
2022/03/15 01:25:55;;;;;;;3.65;2.72;;;20.80;39.80;;;;;;4955978;28;20047;-59
2022/03/15 01:28:21;;;;;;;4.30;2.88;;;20.80;39.80;;;;;;4956808;28;20051;-59
2022/03/15 01:30:46;;;;;;;4.47;2.80;;;20.70;39.70;;;;;;4955186;28;20098;-59
2022/03/15 01:33:12;;;;;;;4.05;2.60;;;20.80;39.80;;;;;;4958486;28;20858;-59
2022/03/15 01:35:38;;;;;;;3.65;3.05;;;20.70;39.70;;;;;;4957416;28;20067;-59
2022/03/15 01:38:04;;;;;;;3.65;2.65;;;20.70;39.70;;;;;;4951072;28;20082;-59
2022/03/15 01:40:29;;;;;;;5.32;2.83;;;20.70;39.70;;;;;;4954034;28;20054;-59
2022/03/15 01:42:55;;;;;;;2.92;2.60;;;20.70;39.70;;;;;;4955765;28;20043;-59
2022/03/15 01:45:29;;;;;;;5.00;2.90;;;20.70;39.80;;;;;;4955240;28;20046;-59
2022/03/15 01:47:54;;;;;;;3.35;2.80;;;20.70;40.50;;;;;;4961777;28;20133;-59
2022/03/15 01:50:20;;;;;;;4.35;3.00;;;20.70;39.70;;;;;;4952984;28;20112;-59
2022/03/15 01:52:45;;;;;;;5.35;3.17;;;20.60;39.70;;;;;;4957384;28;21175;-59
2022/03/15 01:55:11;;;;;;;3.60;2.88;;;20.70;39.70;;;;;;4950456;28;20080;-59
2022/03/15 01:57:37;;;;;;;3.35;2.63;;;20.60;39.70;;;;;;4956838;28;20043;-59
2022/03/15 02:00:04;;;;;;;4.85;2.78;;;20.60;39.70;;;;;;4954298;28;20058;-59
2022/03/15 02:02:30;;;;;;;6.53;3.15;;;20.60;39.70;;;;;;4956041;28;20058;-59
2022/03/15 02:04:55;;;;;;;4.85;2.88;;;20.60;39.70;;;;;;4955788;28;20046;-59
2022/03/15 02:07:21;;;;;;;5.43;3.10;;;20.60;39.70;;;;;;4956538;28;20491;-59
2022/03/15 02:09:47;;;;;;;4.10;2.72;;;20.60;39.70;;;;;;4948957;28;20080;-59
2022/03/15 02:12:13;;;;;;;4.07;3.10;;;20.60;39.70;;;;;;4953305;28;20052;-59
2022/03/15 02:14:39;;;;;;;3.80;2.95;;;20.60;39.70;;;;;;4954886;28;20056;-59
2022/03/15 02:17:05;;;;;;;4.75;3.15;;;20.50;39.60;;;;;;4956418;28;20049;-58
2022/03/15 02:19:30;;;;;;;3.90;2.90;;;20.50;39.60;;;;;;4955117;28;20400;-59
2022/03/15 02:21:59;;;;;;;6.68;2.95;;;20.50;39.60;;;;;;4955123;28;20615;-59
2022/03/15 02:24:25;;;;;;;5.35;3.00;;;20.50;39.60;;;;;;4946240;28;20484;-58
2022/03/15 02:26:51;;;;;;;4.32;2.85;;;20.50;40.30;;;;;;4955459;28;20632;-59
2022/03/15 02:29:18;;;;;;;4.53;3.30;;;20.50;39.50;;;;;;4954946;28;20091;-59
2022/03/15 02:31:44;;;;;;;4.75;3.28;;;20.50;39.60;;;;;;4957154;28;20046;-59
2022/03/15 02:34:09;;;;;;;4.13;3.63;;;20.50;39.50;;;;;;4959879;28;20546;-59
2022/03/15 02:36:35;;;;;;;3.90;3.30;;;20.50;39.50;;;;;;4952162;28;20051;-58
2022/03/15 02:39:00;;;;;;;4.32;3.50;;;20.50;39.50;;;;;;4950232;28;20059;-59
2022/03/15 02:41:27;;;;;;;4.05;3.22;;;20.50;39.60;;;;;;4954928;28;20042;-59
2022/03/15 02:43:53;;;;;;;4.28;3.30;;;20.50;39.50;;;;;;4954989;28;20047;-59
2022/03/15 02:46:18;;;;;;;4.18;3.22;;;20.40;39.50;;;;;;4955749;28;20054;-59
2022/03/15 02:48:44;;;;;;;4.72;3.40;;;20.50;39.50;;;;;;4954239;28;20047;-59
2022/03/15 02:51:10;;;;;;;5.03;3.47;;;20.40;39.50;;;;;;4954721;28;20057;-58
2022/03/15 02:53:39;;;;;;;7.07;3.60;;;20.40;39.50;;;;;;4953899;28;20042;-59
2022/03/15 02:56:11;;;;;;;4.00;3.50;;;20.40;39.50;;;;;;4948899;28;20047;-59
2022/03/15 02:58:40;;;;;;;4.72;3.30;;;20.40;39.40;;;;;;4969569;28;20170;-59
2022/03/15 03:01:07;;;;;;;6.20;3.72;;;20.40;39.40;;;;;;4950545;28;20062;-59
2022/03/15 03:03:34;;;;;;;4.80;3.28;;;20.40;39.40;;;;;;4950522;28;20671;-58
2022/03/15 03:06:00;;;;;;;4.25;3.13;;;20.40;39.50;;;;;;4953461;28;20782;-58
2022/03/15 03:08:27;;;;;;;4.53;3.47;;;20.40;39.40;;;;;;4953242;28;20086;-58
2022/03/15 03:10:53;;;;;;;4.53;3.35;;;20.40;39.40;;;;;;4956419;28;20453;-58
2022/03/15 03:13:26;;;;;;;3.83;3.50;;;20.40;39.40;;;;;;4956528;28;20121;-58
2022/03/15 03:15:57;;;;;;;4.13;3.38;;;20.30;39.30;;;;;;4957486;28;20062;-58
2022/03/15 03:18:34;;;;;;;5.25;3.60;;;20.40;39.40;;;;;;4957570;28;20054;-59
2022/03/15 03:21:05;;;;;;;3.80;3.38;;;20.30;39.40;;;;;;4955316;28;20050;-60
2022/03/15 03:23:32;;;;;;;5.97;3.03;;;20.30;39.40;;;;;;4955672;28;20503;-59
2022/03/15 03:25:59;;;;;;;4.32;3.80;;;20.30;39.40;;;;;;4952076;28;20060;-59
2022/03/15 03:28:26;;;;;;;5.88;4.22;;;20.30;39.30;;;;;;4958090;28;20380;-59
2022/03/15 03:30:53;;;;;;;4.07;3.58;;;20.30;39.30;;;;;;4955652;28;20364;-59
2022/03/15 03:33:19;;;;;;;5.80;4.22;;;20.30;39.40;;;;;;4972304;28;20055;-59
2022/03/15 03:35:45;;;;;;;5.82;3.88;;;20.30;39.30;;;;;;4959610;28;20690;-59
2022/03/15 03:38:12;;;;;;;5.68;3.85;;;20.30;39.30;;;;;;4956347;28;20043;-59
2022/03/15 03:40:38;;;;;;;4.95;3.95;;;20.30;39.30;;;;;;4951389;28;20040;-58
2022/03/15 03:43:04;;;;;;;4.20;3.80;;;20.30;39.30;;;;;;4958838;28;20047;-58
2022/03/15 03:45:30;;;;;;;3.90;3.50;;;20.30;39.30;;;;;;4960358;28;20047;-59
2022/03/15 03:47:56;;;;;;;3.70;3.35;;;20.30;39.30;;;;;;4960704;28;20050;-59
2022/03/15 03:50:21;;;;;;;4.30;3.80;;;20.20;39.20;;;;;;4958123;28;20058;-59
2022/03/15 03:52:47;;;;;;;4.70;3.70;;;20.20;39.20;;;;;;4957171;28;20472;-59
2022/03/15 03:55:13;;;;;;;5.43;3.95;;;20.20;39.30;;;;;;4951637;28;20166;-59
2022/03/15 03:57:39;;;;;;;4.60;3.67;;;20.20;39.20;;;;;;4956120;28;20133;-59
2022/03/15 04:00:07;;;;;;;3.70;3.40;;;20.20;39.20;;;;;;4957653;28;20043;-59
2022/03/15 04:02:33;;;;;;;4.63;4.13;;;20.20;39.20;;;;;;4956664;28;20050;-59
2022/03/15 04:04:58;;;;;;;5.03;3.83;;;20.20;39.20;;;;;;4958237;28;20047;-59
2022/03/15 04:07:24;;;;;;;4.43;4.00;;;20.20;39.20;;;;;;4957529;28;20051;-58
2022/03/15 04:09:50;;;;;;;4.78;3.70;;;20.20;39.20;;;;;;4949513;28;20074;-59
2022/03/15 04:12:19;;;;;;;5.32;4.10;;;20.20;39.20;;;;;;4958458;28;20044;-58
2022/03/15 04:14:46;;;;;;;4.95;3.55;;;20.10;39.10;;;;;;4954702;28;20061;-58
2022/03/15 04:17:11;;;;;;;4.50;4.05;;;20.10;39.20;;;;;;4954804;28;20050;-58
2022/03/15 04:19:37;;;;;;;4.40;3.97;;;20.10;39.10;;;;;;4957774;28;20714;-58
2022/03/15 04:22:03;;;;;;;5.47;4.32;;;20.10;39.20;;;;;;4956266;28;20054;-58
2022/03/15 04:24:28;;;;;;;4.47;3.80;;;20.10;39.20;;;;;;4956235;28;20043;-59
2022/03/15 04:26:54;;;;;;;4.38;3.97;;;20.10;39.20;;;;;;4954211;28;20054;-58
2022/03/15 04:29:20;;;;;;;6.03;4.28;;;20.10;39.10;;;;;;4955768;28;20076;-58
2022/03/15 04:31:46;;;;;;;4.82;4.20;;;20.10;39.20;;;;;;4957821;28;20078;-59
2022/03/15 04:34:12;;;;;;;4.55;4.10;;;20.10;39.20;;;;;;4958705;28;20039;-59
2022/03/15 04:36:37;;;;;;;5.00;3.83;;;20.10;39.20;;;;;;4956175;28;20054;-58
2022/03/15 04:39:04;;;;;;;5.03;4.28;;;20.10;39.20;;;;;;4956146;28;20047;-59
2022/03/15 04:41:29;;;;;;;5.65;4.53;;;20.10;39.20;;;;;;4952732;28;20046;-59
2022/03/15 04:43:55;;;;;;;5.47;4.22;;;20.00;39.10;;;;;;4956871;28;20051;-58
2022/03/15 04:46:22;;;;;;;4.53;4.10;;;20.00;39.10;;;;;;4956610;28;20078;-59
2022/03/15 04:48:48;;;;;;;5.10;4.50;;;20.00;39.10;;;;;;4956387;28;20053;-59
2022/03/15 04:51:14;;;;;;;4.38;3.97;;;20.10;39.20;;;;;;4955229;28;20055;-58
2022/03/15 04:53:39;;;;;;;4.80;4.38;;;20.00;39.20;;;;;;4955966;28;20803;-58
2022/03/15 04:56:05;;;;;;;4.78;3.95;;;20.00;39.20;;;;;;4951411;28;20050;-59
2022/03/15 04:58:31;;;;;;;6.32;4.38;;;20.00;39.20;;;;;;4956513;28;20511;-59
2022/03/15 05:00:57;;;;;;;6.13;4.18;;;20.00;39.20;;;;;;4953668;28;20043;-59
2022/03/15 05:03:22;;;;;;;5.22;4.72;;;20.00;39.20;;;;;;4956339;28;20054;-59
2022/03/15 05:05:48;;;;;;;4.20;3.80;;;20.00;39.30;;;;;;4953455;28;20193;-59
2022/03/15 05:08:13;;;;;;;4.22;3.83;;;20.00;39.30;;;;;;4953932;28;20050;-59
2022/03/15 05:13:23;;;;;;;6.88;4.32;;;20.00;39.30;;;;;;4954787;28;20051;-59
2022/03/15 05:15:49;;;;;;;5.25;4.30;;;20.00;39.30;;;;;;4954673;28;20051;-59
2022/03/15 05:18:14;;;;;;;4.93;4.40;;;20.00;39.30;;;;;;4956570;28;20051;-59
2022/03/15 05:20:40;;;;;;;4.43;4.00;;;20.00;39.40;;;;;;4955914;28;20701;-59
2022/03/15 05:23:06;;;;;;;4.88;4.40;;;20.00;39.40;;;;;;4956638;28;20050;-59
2022/03/15 05:25:31;;;;;;;5.10;4.55;;;20.00;39.30;;;;;;4949181;28;20785;-59
2022/03/15 05:27:57;;;;;;;5.97;4.60;;;20.00;39.40;;;;;;4957566;28;20042;-58
2022/03/15 05:30:23;;;;;;;5.70;4.20;;;20.00;39.40;;;;;;4954986;28;20078;-58
2022/03/15 05:32:49;;;;;;;5.68;4.85;;;20.00;39.40;;;;;;4955555;28;20050;-59
2022/03/15 05:35:15;;;;;;;5.00;4.50;;;20.00;39.50;;;;;;4956558;28;20106;-59
2022/03/15 05:37:41;;;;;;;4.80;4.38;;;20.00;39.40;;;;;;4957653;28;20055;-58
2022/03/15 05:40:07;;;;;;;5.05;4.45;;;20.00;39.50;;;;;;4956844;28;20046;-59
2022/03/15 05:42:33;;;;;;;5.05;4.65;;;20.00;39.50;;;;;;4953354;28;20054;-58
2022/03/15 05:44:58;;;;;;;5.07;4.60;;;19.90;39.50;;;;;;4956973;28;20043;-58
2022/03/15 05:47:24;;;;;;;5.57;4.78;;;20.00;39.60;;;;;;4954547;28;20046;-58
2022/03/15 05:49:50;;;;;;;5.90;5.38;;;20.00;39.60;;;;;;4959277;28;20059;-58
2022/03/15 05:52:15;;;;;;;5.28;4.68;;;20.00;39.60;;;;;;4956363;28;20070;-58
2022/03/15 05:54:41;;;;;;;5.30;4.68;;;20.00;39.60;;;;;;4955442;28;20952;-59
2022/03/15 05:57:07;;;;;;;5.05;4.57;;;20.00;39.70;;;;;;4951367;28;20039;-59
2022/03/15 05:59:32;;;;;;;7.80;4.40;;;20.00;39.70;;;;;;4949523;28;20120;-58
2022/03/15 06:01:58;;;;;;;9.30;4.53;;;20.00;39.90;;;;;;4954798;28;20043;-59
2022/03/15 06:04:25;;;;;;;5.25;4.55;;;20.00;40.10;;;;;;4948351;28;20592;-58
2022/03/15 06:06:51;;;;;;;5.28;4.63;;;19.90;40.40;;;;;;4946750;28;20055;-58
2022/03/15 06:09:17;;;;;;;5.38;4.68;;;19.90;40.50;;;;;;4954335;28;20063;-59
2022/03/15 06:11:43;;;;;;;4.93;4.35;;;19.90;40.50;;;;;;4953761;28;20580;-59
2022/03/15 06:14:09;;;;;;;5.78;5.00;;;20.00;40.50;;;;;;4954434;28;20043;-57
2022/03/15 06:16:34;;;;;;;6.45;4.78;;;20.00;40.50;;;;;;4954168;28;20053;-58
2022/03/15 06:19:00;;;;;;;7.20;4.60;;;20.00;40.70;;;;;;4936273;28;20054;-58
2022/03/15 06:21:26;;;;;;;6.80;5.00;;;19.90;40.60;;;;;;4954787;28;20549;-58
2022/03/15 06:23:51;;;;;;;5.88;4.45;;;19.90;40.60;;;;;;4951672;28;20558;-58
2022/03/15 06:26:20;;;;;;;5.97;4.60;;;20.00;40.60;;;;;;4951047;28;20043;-59
2022/03/15 06:28:46;;;;;;;8.05;5.63;;;19.90;40.70;;;;;;4953196;28;20106;-58
2022/03/15 06:31:13;;;;;;;5.72;5.20;;;20.00;41.30;;;;;;4955830;28;20504;-58
2022/03/15 06:33:39;;;;;;;5.90;5.30;;;20.00;41.10;;;;;;4953960;28;20047;-57
2022/03/15 06:36:11;;;;;;;7.65;4.65;;;20.00;41.00;;;;;;4953304;28;20429;-60
2022/03/15 06:38:40;;;;;;;5.70;5.03;;;20.00;41.00;;;;;;4953481;28;20137;-58
2022/03/15 06:41:11;;;;;;;6.50;5.10;;;20.00;41.10;;;;;;4952771;28;20126;-60
2022/03/15 06:43:39;;;;;;;5.38;4.88;;;20.00;41.00;;;;;;4955478;28;20058;-59
2022/03/15 06:46:05;;;;;;;8.45;5.30;;;20.00;40.90;;;;;;4957887;28;20063;-57
2022/03/15 06:48:31;;;;;;;5.85;4.70;;;20.00;40.80;;;;;;4957205;28;20093;-59
2022/03/15 06:50:57;;;;;;;5.50;4.97;;;20.00;40.80;;;;;;4958990;28;20083;-59
2022/03/15 06:53:22;;;;;;;7.10;5.63;;;20.00;40.70;;;;;;4953673;28;20075;-59
2022/03/15 06:55:48;;;;;;;6.93;5.07;;;20.00;40.70;;;;;;4958791;28;20914;-59
2022/03/15 06:58:14;;;;;;;7.28;5.30;;;20.00;40.70;;;;;;4958072;28;20047;-58
2022/03/15 07:00:40;;;;;;;6.20;5.68;;;20.00;40.70;;;;;;4958324;28;20038;-58
2022/03/15 07:03:05;;;;;;;7.05;5.43;;;20.00;40.60;;;;;;4955857;28;20098;-58
2022/03/15 07:05:31;;;;;;;7.25;5.45;;;20.00;40.60;;;;;;4956048;28;20078;-59
2022/03/15 07:07:57;;;;;;;6.28;5.68;;;20.00;40.50;;;;;;4956033;28;20054;-58
2022/03/15 07:10:23;;;;;;;6.57;5.97;;;20.00;40.50;;;;;;4955376;28;20050;-58
2022/03/15 07:12:48;;;;;;;6.03;5.43;;;20.00;40.50;;;;;;4959363;28;20043;-59
2022/03/15 07:15:16;;;;;;;5.75;4.90;;;20.00;40.50;;;;;;4956407;28;20055;-59
2022/03/15 07:17:51;;;;;;;5.32;4.82;;;20.00;40.50;;;;;;4954958;28;20074;-59
2022/03/15 07:20:17;;;;;;;5.32;4.82;;;20.00;40.50;;;;;;4956166;28;20047;-59
2022/03/15 07:22:42;;;;;;;7.03;6.10;;;20.00;40.60;;;;;;4954620;28;20054;-59
2022/03/15 07:25:09;;;;;;;5.20;4.70;;;20.10;40.70;;;;;;4957353;28;20047;-59
2022/03/15 07:27:34;;;;;;;6.32;5.13;;;20.10;40.70;;;;;;4956640;28;20195;-59
2022/03/15 07:30:00;;;;;;;5.78;4.97;;;20.10;40.80;;;;;;4955406;28;20496;-58
2022/03/15 07:32:26;;;;;;;6.43;4.93;;;20.10;40.80;;;;;;4957731;28;20069;-59
2022/03/15 07:34:51;;;;;;;5.90;4.90;;;20.10;40.90;;;;;;4955669;28;20773;-59
2022/03/15 07:37:17;;;;;;;5.95;5.40;;;20.20;41.10;;;;;;4956066;28;20055;-59
2022/03/15 07:39:43;;;;;;;6.18;5.00;;;20.10;41.10;;;;;;4959710;28;20446;-59
2022/03/15 07:42:08;;;;;;;8.50;5.63;;;20.20;41.20;;;;;;4957841;28;20109;-60
2022/03/15 07:44:34;;;;;;;7.13;5.45;;;20.20;41.20;;;;;;4955044;28;20049;-59
2022/03/15 07:46:59;;;;;;;5.60;5.10;;;20.20;41.30;;;;;;4956822;28;20054;-59
2022/03/15 07:49:25;;;;;;;6.57;5.60;;;20.20;41.10;;;;;;4957390;28;20043;-59
2022/03/15 07:51:50;;;;;;;6.68;5.82;;;20.20;41.10;;;;;;4955684;28;20051;-59
2022/03/15 07:54:16;;;;;;;7.47;5.20;;;20.20;41.10;;;;;;4953683;28;20148;-59
2022/03/15 07:56:43;;;;;;;10.82;5.00;;;20.20;41.10;;;;;;4954656;28;20057;-60
2022/03/15 07:59:08;;;;;;;5.43;4.93;;;20.20;41.20;;;;;;4955956;28;20380;-59
2022/03/15 08:01:34;;;;;;;7.55;5.47;;;20.20;41.20;;;;;;4954419;28;20058;-59
2022/03/15 08:04:00;;;;;;;7.35;5.30;;;20.20;41.30;;;;;;4943479;28;20046;-59
2022/03/15 08:06:26;;;;;;;8.77;5.35;;;20.20;41.50;;;;;;4985800;28;20129;-59
2022/03/15 08:08:56;;;;;;;6.35;5.00;;;20.20;41.50;;;;;;4977167;28;20785;-59
2022/03/15 08:11:23;;;;;;;6.57;4.93;;;20.20;41.50;;;;;;4978020;28;20673;-59
2022/03/15 08:13:49;;;;;;;5.72;4.72;;;20.20;41.50;;;;;;4973934;28;20046;-59
2022/03/15 08:16:15;;;;;;;5.78;4.72;;;20.20;41.50;;;;;;4974933;28;20085;-59
2022/03/15 08:18:40;;;;;;;5.68;5.00;;;20.20;41.50;;;;;;4974539;28;20121;-58
2022/03/15 08:21:07;;;;;;;7.47;5.13;;;20.20;41.50;;;;;;4977480;28;20603;-59
2022/03/15 08:23:32;;;;;;;6.70;4.78;;;20.30;41.50;;;;;;4974977;28;20751;-59
2022/03/15 08:25:58;;;;;;;5.97;4.93;;;20.20;41.50;;;;;;4974489;28;20064;-60
2022/03/15 08:28:25;;;;;;;9.73;5.05;;;20.30;41.70;;;;;;4976314;28;20042;-60
2022/03/15 08:30:53;;;;;;;6.07;4.85;;;20.30;41.90;;;;;;4973326;28;20506;-60
2022/03/15 08:33:19;;;;;;;6.60;5.03;;;20.30;42.00;;;;;;4971172;28;20050;-60
2022/03/15 08:35:45;;;;;;;9.30;5.38;;;20.30;42.00;;;;;;4972818;28;20078;-60
2022/03/15 08:38:11;;;;;;;7.40;5.45;;;20.30;42.00;;;;;;4973703;28;20125;-60
2022/03/15 08:40:37;;;;;;;6.28;5.25;;;20.30;42.80;;;;;;4973666;28;20398;-60
2022/03/15 08:43:03;;;;;;;6.35;5.28;;;20.30;42.10;;;;;;4955830;28;20319;-59
2022/03/15 08:45:28;;;;;;;5.82;5.20;;;20.30;42.10;;;;;;4958895;28;20180;-59
2022/03/15 08:47:54;;;;;;;6.03;5.15;;;20.30;42.10;;;;;;4974545;28;20046;-59
2022/03/15 08:50:19;;;;;;;5.85;5.35;;;20.30;42.00;;;;;;4976369;28;20062;-59
2022/03/15 08:52:47;;;;;;;5.10;4.60;;;20.30;42.00;;;;;;4975630;28;20046;-60
2022/03/15 08:55:14;;;;;;;5.85;5.10;;;20.30;42.10;;;;;;4976237;28;20057;-60
2022/03/15 08:57:39;;;;;;;7.63;4.88;;;20.30;42.20;;;;;;4974428;28;20047;-60
2022/03/15 09:00:07;;;;;;;5.68;4.90;;;20.30;42.20;;;;;;4974277;28;20049;-61
2022/03/15 09:02:34;;;;;;;5.50;4.80;;;20.30;42.30;;;;;;4974787;28;20086;-60
2022/03/15 09:04:59;;;;;;;8.00;5.13;;;20.40;42.30;;;;;;4971115;28;20046;-59
2022/03/15 09:07:27;;;;;;;6.40;4.85;;;20.40;42.50;;;;;;4985803;28;20045;-60
2022/03/15 09:09:53;;;;;;;5.22;4.70;;;20.40;42.60;;;;;;4974655;28;20078;-59
2022/03/15 09:12:20;;;;;;;5.90;4.85;;;20.30;42.70;;;;;;4974272;28;20046;-60
2022/03/15 09:14:46;;;;;;;4.55;4.15;;;20.30;42.80;;;;;;4975852;28;20050;-61
2022/03/15 09:17:12;;;;;;;5.88;4.70;;;20.40;42.90;;;;;;4973759;28;20465;-59
2022/03/15 09:19:40;;;;;;;5.38;4.85;;;20.40;43.00;;;;;;4960986;28;20050;-59
2022/03/15 09:22:07;;;;;;;5.55;4.90;;;20.40;43.00;;;;;;4975469;28;20101;-59
2022/03/15 09:24:35;;;;;;;5.38;4.78;;;20.40;43.10;;;;;;4974894;28;20054;-59
2022/03/15 09:27:01;;;;;;;6.57;4.65;;;20.40;43.10;;;;;;4974553;28;20047;-59
2022/03/15 09:29:27;;;;;;;5.55;4.13;;;20.40;43.20;;;;;;4975628;28;20133;-59
2022/03/15 09:31:52;;;;;;;5.78;4.47;;;20.40;43.30;;;;;;4974967;28;20134;-59
2022/03/15 09:34:22;;;;;;;4.75;4.22;;;20.40;43.30;;;;;;4974196;28;20046;-59
2022/03/15 09:36:48;;;;;;;6.30;4.35;;;20.40;43.30;;;;;;4973924;28;20161;-59
2022/03/15 09:39:14;;;;;;;5.57;5.00;;;20.40;43.30;;;;;;4973716;28;20501;-60
2022/03/15 09:41:40;;;;;;;5.85;4.60;;;20.40;43.30;;;;;;4972315;28;20045;-59
2022/03/15 09:44:08;;;;;;;5.25;4.75;;;20.40;43.20;;;;;;4973529;28;20043;-59
2022/03/15 09:46:42;;;;;;;6.05;4.30;;;20.40;43.30;;;;;;4975101;28;20126;-58
2022/03/15 09:49:08;;;;;;;5.50;4.43;;;20.40;43.30;;;;;;4970140;28;20115;-59
2022/03/15 09:51:35;;;;;;;4.90;3.72;;;20.50;43.20;;;;;;4972590;28;20981;-59
2022/03/15 09:54:03;;;;;;;4.72;4.28;;;20.50;43.30;;;;;;4971986;28;20047;-59
2022/03/15 09:56:30;;;;;;;6.03;4.15;;;20.50;43.20;;;;;;4971803;28;20096;-60
2022/03/15 09:58:56;;;;;;;5.30;4.72;;;20.50;43.30;;;;;;4973437;28;20042;-59
2022/03/15 10:01:21;;;;;;;4.40;4.00;;;20.50;43.30;;;;;;4975663;28;20053;-60
2022/03/15 10:03:47;;;;;;;5.15;4.47;;;20.50;43.30;;;;;;4973892;28;20085;-60
2022/03/15 10:06:14;;;;;;;5.50;4.45;;;20.50;43.40;;;;;;4974089;28;20462;-59
2022/03/15 10:08:40;;;;;;;5.25;3.83;;;20.50;43.50;;;;;;4972795;28;20058;-59
2022/03/15 10:11:06;;;;;;;6.82;4.47;;;20.50;43.50;;;;;;4973103;28;20523;-60
2022/03/15 10:13:33;;;;;;;6.45;4.32;;;20.60;43.60;;;;;;4972677;28;20093;-60
2022/03/15 10:16:00;;;;;;;4.30;3.90;;;20.60;43.70;;;;;;4972658;28;20058;-60
2022/03/15 10:18:27;;;;;;;6.47;4.20;;;20.50;43.60;;;;;;4973714;28;20043;-59
2022/03/15 10:20:53;;;;;;;5.97;4.20;;;20.60;43.70;;;;;;4971409;28;20038;-59
2022/03/15 10:23:24;;;;;;;6.68;3.97;;;20.60;43.70;;;;;;4963674;28;20062;-59
2022/03/15 10:25:55;;;;;;;4.20;3.60;;;20.60;43.70;;;;;;4974653;28;20053;-59
2022/03/15 10:28:21;;;;;;;4.93;4.00;;;20.60;43.70;;;;;;4970707;28;20074;-59
2022/03/15 10:30:48;;;;;;;4.85;3.80;;;20.60;43.80;;;;;;4981767;28;20193;-59
2022/03/15 10:33:15;;;;;;;6.35;3.83;;;20.60;43.70;;;;;;4970263;28;20089;-59
2022/03/15 10:35:46;;;;;;;4.47;3.70;;;20.70;43.70;;;;;;4974264;28;20388;-60
2022/03/15 10:38:13;;;;;;;6.15;4.40;;;20.70;43.70;;;;;;4974318;28;20108;-58
2022/03/15 10:40:51;;;;;;;4.50;3.88;;;20.60;43.70;;;;;;4972150;28;20054;-59
2022/03/15 10:43:24;;;;;;;5.53;4.10;;;20.70;43.90;;;;;;4987666;28;20053;-58
2022/03/15 10:45:56;;;;;;;6.03;3.88;;;20.70;43.90;;;;;;4972582;28;20058;-59
2022/03/15 10:48:29;;;;;;;6.97;5.00;;;20.70;43.90;;;;;;4972721;28;20128;-58
2022/03/15 10:51:04;;;;;;;6.85;5.47;;;20.70;43.80;;;;;;4972558;28;20085;-59
2022/03/15 10:53:47;;;;;;;6.57;4.43;;;20.70;43.80;;;;;;4973974;28;20089;-59
2022/03/15 10:56:18;;;;;;;6.25;4.65;;;20.70;43.80;;;;;;4972584;28;20047;-59
2022/03/15 10:58:51;;;;;;;5.20;4.70;;;20.70;43.90;;;;;;4973711;28;20038;-59
2022/03/15 11:01:19;;;;;;;7.18;4.47;;;20.70;43.90;;;;;;4971072;28;20054;-59
2022/03/15 11:04:11;;;;;;;10.23;5.00;;;20.70;44.00;;;;;;4972643;28;20350;-59
2022/03/15 11:06:44;;;;;;;8.38;4.63;;;20.70;44.00;;;;;;4970595;28;20138;-59
2022/03/15 11:09:29;;;;;;;6.00;4.25;;;20.70;44.10;;;;;;4974412;28;20130;-59
2022/03/15 11:12:08;;;;;;;5.65;4.45;;;20.80;44.20;;;;;;4989946;28;20058;-58
2022/03/15 11:14:54;;;;;;;6.30;4.25;;;20.70;44.20;;;;;;4973676;28;20054;-59
2022/03/15 11:17:23;;;;;;;5.90;4.43;;;20.80;44.30;;;;;;4972865;28;20128;-58
2022/03/15 11:19:52;;;;;;;5.47;4.05;;;20.70;44.30;;;;;;4972861;28;20137;-58
2022/03/15 11:22:20;;;;;;;4.18;3.78;;;20.80;44.50;;;;;;4973691;28;20038;-59
2022/03/15 11:25:17;;;;;;;5.65;3.85;;;20.80;45.20;;;;;;4973878;28;20072;-59
2022/03/15 11:27:45;;;;;;;5.88;3.63;;;20.80;44.50;;;;;;4971849;28;20064;-59
2022/03/15 11:30:18;;;;;;;5.93;3.88;;;20.80;44.60;;;;;;4975208;28;20073;-59
2022/03/15 11:32:44;;;;;;;6.97;3.60;;;20.80;44.70;;;;;;4976212;28;20053;-57
2022/03/15 11:35:12;;;;;;;7.68;4.20;;;20.80;44.60;;;;;;4981725;28;20495;-58
2022/03/15 11:37:39;;;;;;;7.25;3.45;;;20.80;44.60;;;;;;4976837;28;20054;-58
2022/03/15 11:40:10;;;;;;;5.13;3.70;;;20.80;44.60;;;;;;4961170;28;20090;-58
2022/03/15 11:42:39;;;;;;;;;;;20.80;44.60;;;;;;4962392;28;20055;-59
2022/03/15 11:45:09;;;;;;;5.40;3.47;;;20.80;44.60;;;;;;4974144;28;19926;-58
2022/03/15 11:47:58;;;;;;;3.83;3.47;;;20.80;44.60;;;;;;4973559;28;20051;-58
2022/03/15 11:50:37;;;;;;;6.63;3.90;;;20.80;44.60;;;;;;4972538;28;20137;-60
2022/03/15 11:53:12;;;;;;;4.93;3.22;;;20.80;44.50;;;;;;4975737;28;20078;-59
2022/03/15 11:55:59;;;;;;;6.65;3.80;;;20.80;44.60;;;;;;4975520;28;20078;-60
2022/03/15 11:58:29;;;;;;;4.90;3.42;;;20.80;44.50;;;;;;4973913;28;20489;-60
2022/03/15 12:01:08;;;;;;;4.57;3.70;;;20.80;44.60;;;;;;4989825;28;20046;-60
2022/03/15 12:03:47;;;;;;;5.85;3.20;;;20.80;44.50;;;;;;4975300;28;21280;-60
2022/03/15 12:06:18;;;;;;;4.85;3.30;;;20.90;44.60;;;;;;4977387;28;20046;-60
2022/03/15 12:08:54;;;;;;;5.95;3.35;;;20.90;44.60;;;;;;4975565;28;20407;-60
2022/03/15 12:11:28;;;;;;;4.35;3.47;;;20.90;44.70;;;;;;4975349;28;20126;-60
2022/03/15 12:14:08;;;;;;;5.05;3.63;;;20.90;44.70;;;;;;4975044;28;20074;-59
2022/03/15 12:16:37;;;;;;;5.93;3.22;;;20.90;44.90;;;;;;4977867;28;20170;-59
2022/03/15 12:21:58;;;;;;;5.78;3.75;;;20.90;45.10;;;;;;4972756;28;20081;-59
2022/03/15 12:24:41;;;;;;;6.93;3.63;;;20.90;45.00;;;;;;4974430;28;20090;-58
2022/03/15 12:27:15;;;;;;;4.88;3.30;;;21.00;45.50;;;;;;4973329;28;20116;-60
2022/03/15 12:29:53;;;;;;;4.53;3.35;;;21.00;46.00;;;;;;4976575;28;20138;-59
2022/03/15 12:32:20;;;;;;;5.65;2.70;;;21.00;45.90;;;;;;4975365;28;20065;-57
2022/03/15 12:34:52;;;;;;;5.15;3.00;;;21.00;45.50;;;;;;4974551;28;20054;-59
2022/03/15 12:37:49;;;;;;;4.18;3.20;;;21.00;45.40;;;;;;4974142;28;20054;-58
2022/03/15 12:40:16;;;;;;;3.50;2.55;;;21.00;45.30;;;;;;4973099;28;20125;-60
2022/03/15 12:42:57;;;;;;;4.75;3.05;;;21.00;45.20;;;;;;4975131;28;20069;-59
2022/03/15 12:45:22;;;;;;;;;;;21.00;45.20;;;;;;4976876;28;20054;-59
2022/03/15 12:47:48;;;;;;;4.65;3.00;;;21.00;45.10;;;;;;4977579;28;20413;-59
2022/03/15 12:50:16;;;;;;;5.93;2.95;;;21.00;45.90;;;;;;4978310;28;20055;-58
2022/03/15 12:53:07;;;;;;;4.65;2.92;;;21.00;45.10;;;;;;4958669;28;20396;-59
2022/03/15 12:55:38;;;;;;;3.63;2.63;;;21.00;45.00;;;;;;4973557;28;20473;-61